SPHO/AYP METAR and TAF weather

Enter ICAO airport designator
Station Type Date Time Source
SPHO METAR 2024/04/14 23:00 UTC NOAA

SPHO 142300Z 11005KT 080V150 9999 FEW060 22/08 Q1021 RMK BIRD HAZARD RWY 02/20 PP000


Station Type Date Time Source
SPHO Decoded METAR 2024/04/14 23:00 UTC NOAA

Ayacucho, Peru (SPHO) 13-08S 074-13W 2749M
Apr 14, 2024 - 07:00 PM EDT / 2024.04.14 2300 UTC
Wind: from the ESE (110 degrees) at 6 MPH (5 KT) (direction variable):0
Visibility: greater than 7 mile(s):0
Sky conditions: mostly clear
Temperature: 71 F (22 C)
Dew Point: 46 F (8 C)
Relative Humidity: 40%
Pressure (altimeter): 30.15 in. Hg (1021 hPa)
ob: SPHO 142300Z 11005KT 080V150 9999 FEW060 22/08 Q1021 RMK BIRD HAZARD RWY 02/20 PP000
cycle: 23

Station Type Date Time Source
SPHO TAF 2024/04/14 18:33 UTC NOAA